createdAt,value
2023-04-18T00:01:09.721Z,3.47
2023-04-18T00:03:40.565Z,3.60
2023-04-18T00:06:08.743Z,3.10
2023-04-18T00:08:36.720Z,3.27
2023-04-18T00:11:04.792Z,3.67
2023-04-18T00:13:32.756Z,3.67
2023-04-18T00:16:01.801Z,4.00
2023-04-18T00:18:29.792Z,3.53
2023-04-18T00:20:59.360Z,3.50
2023-04-18T00:23:28.282Z,4.00
2023-04-18T00:25:56.242Z,3.70
2023-04-18T00:28:24.221Z,3.60
2023-04-18T00:30:52.339Z,3.83
2023-04-18T00:33:20.330Z,3.70
2023-04-18T00:35:48.282Z,3.67
2023-04-18T00:38:17.623Z,3.87
2023-04-18T00:40:45.595Z,3.63
2023-04-18T00:43:14.754Z,3.93
2023-04-18T00:45:42.868Z,3.47
2023-04-18T00:48:12.017Z,4.43
2023-04-18T00:50:41.153Z,3.27
2023-04-18T00:53:10.673Z,3.70
2023-04-18T00:55:41.656Z,3.20
2023-04-18T00:58:10.072Z,4.50
2023-04-18T01:00:38.118Z,4.07
2023-04-18T01:03:06.723Z,3.87
2023-04-18T01:05:35.174Z,4.60
2023-04-18T01:08:04.024Z,3.73
2023-04-18T01:10:32.185Z,4.00
2023-04-18T01:13:15.277Z,4.30
2023-04-18T01:15:44.311Z,3.67
2023-04-18T01:18:13.684Z,4.40
2023-04-18T01:20:45.802Z,4.70
2023-04-18T01:23:13.893Z,4.27
2023-04-18T01:25:43.739Z,4.53
2023-04-18T01:28:13.646Z,4.40
2023-04-18T01:30:42.029Z,4.60
2023-04-18T01:33:09.965Z,4.80
2023-04-18T01:35:37.949Z,4.60
2023-04-18T01:38:05.948Z,4.40
2023-04-18T01:40:33.940Z,4.13
2023-04-18T01:43:03.229Z,4.47
2023-04-18T01:45:31.223Z,3.90
2023-04-18T01:47:59.206Z,4.50
2023-04-18T01:50:27.192Z,4.40
2023-04-18T01:52:57.957Z,5.17
2023-04-18T01:55:25.888Z,4.77
2023-04-18T01:57:53.833Z,4.63
2023-04-18T02:00:23.676Z,4.60
2023-04-18T02:02:51.767Z,5.23
2023-04-18T02:05:20.036Z,5.17
2023-04-18T02:07:50.110Z,4.60
2023-04-18T02:10:19.055Z,4.30
2023-04-18T02:12:47.035Z,5.17
2023-04-18T02:15:15.145Z,5.17
2023-04-18T02:17:45.633Z,4.43
2023-04-18T02:20:14.714Z,4.70
2023-04-18T02:22:42.722Z,4.70
2023-04-18T02:25:11.424Z,4.40
2023-04-18T02:27:39.418Z,5.30
2023-04-18T02:30:08.713Z,5.17
2023-04-18T02:32:36.895Z,4.33
2023-04-18T02:35:07.014Z,4.50
2023-04-18T02:37:34.956Z,4.60
2023-04-18T02:40:02.941Z,5.27
2023-04-18T02:42:30.960Z,4.50
2023-04-18T02:44:59.037Z,4.43
2023-04-18T02:47:27.125Z,5.40
2023-04-18T02:49:55.277Z,5.03
2023-04-18T02:52:25.761Z,5.00
2023-04-18T02:54:53.761Z,4.93
2023-04-18T02:57:21.684Z,4.73
2023-04-18T02:59:49.617Z,5.30
2023-04-18T03:02:17.657Z,4.43
2023-04-18T03:04:46.299Z,5.37
2023-04-18T03:07:14.313Z,5.33
2023-04-18T03:09:43.568Z,5.27
2023-04-18T03:12:11.529Z,5.33
2023-04-18T03:14:39.463Z,4.57
2023-04-18T03:17:07.395Z,4.80
2023-04-18T03:19:35.342Z,4.83
2023-04-18T03:22:03.793Z,4.60
2023-04-18T03:24:31.714Z,4.87
2023-04-18T03:27:01.043Z,4.87
2023-04-18T03:29:28.950Z,4.90
2023-04-18T03:31:56.939Z,5.10
2023-04-18T03:34:25.090Z,5.27
2023-04-18T03:36:53.069Z,5.60
2023-04-18T03:39:21.008Z,4.80
2023-04-18T03:41:49.856Z,4.70
2023-04-18T03:44:19.366Z,5.50
2023-04-18T03:46:47.474Z,4.57
2023-04-18T03:49:15.425Z,4.40
2023-04-18T03:51:45.202Z,5.50
2023-04-18T03:54:13.277Z,4.97
2023-04-18T03:56:41.793Z,5.13
2023-04-18T03:59:09.829Z,5.17
2023-04-18T04:01:39.447Z,4.43
2023-04-18T04:04:09.132Z,5.30
2023-04-18T04:06:37.265Z,4.60
2023-04-18T04:09:05.216Z,4.73
2023-04-18T04:11:33.130Z,5.00
2023-04-18T04:14:01.141Z,4.77
2023-04-18T04:16:29.336Z,4.70
2023-04-18T04:18:58.744Z,5.00
2023-04-18T04:21:27.098Z,4.73
2023-04-18T04:23:55.040Z,4.80
2023-04-18T04:26:23.246Z,5.10
2023-04-18T04:28:51.646Z,4.63
2023-04-18T04:31:19.612Z,5.20
2023-04-18T04:33:47.881Z,4.50
2023-04-18T04:36:19.068Z,4.77
2023-04-18T04:38:47.260Z,4.70
2023-04-18T04:41:15.280Z,4.67
2023-04-18T04:43:43.221Z,5.23
2023-04-18T04:46:13.935Z,4.93
2023-04-18T04:48:42.208Z,4.57
2023-04-18T04:51:10.135Z,5.10
2023-04-18T04:53:40.028Z,5.10
2023-04-18T04:56:09.300Z,4.57
2023-04-18T04:58:37.943Z,5.00
2023-04-18T05:01:07.679Z,5.13
2023-04-18T05:03:36.503Z,5.40
2023-04-18T05:06:05.204Z,4.97
2023-04-18T05:08:33.167Z,4.33
2023-04-18T05:11:02.874Z,5.17
2023-04-18T05:13:30.801Z,5.07
2023-04-18T05:16:00.006Z,4.73
2023-04-18T05:18:27.926Z,4.90
2023-04-18T05:20:56.867Z,5.03
2023-04-18T05:23:24.988Z,4.40
2023-04-18T05:25:53.350Z,4.57
2023-04-18T05:28:24.500Z,5.27
2023-04-18T05:30:52.487Z,5.40
2023-04-18T05:33:20.435Z,5.30
2023-04-18T05:35:48.424Z,5.27
2023-04-18T05:38:16.398Z,4.67
2023-04-18T05:40:44.310Z,4.93
2023-04-18T05:43:12.299Z,5.67
2023-04-18T05:45:41.570Z,5.70
2023-04-18T05:48:09.664Z,4.83
2023-04-18T05:50:37.727Z,5.07
2023-04-18T05:53:05.657Z,4.80
2023-04-18T05:55:34.295Z,4.87
2023-04-18T05:58:02.279Z,5.00
2023-04-18T06:00:30.247Z,5.57
2023-04-18T06:02:59.859Z,5.20
2023-04-18T06:05:28.290Z,4.63
2023-04-18T06:07:56.672Z,5.77
2023-04-18T06:10:24.656Z,4.90
2023-04-18T06:12:52.669Z,5.00
2023-04-18T06:15:20.717Z,4.77
2023-04-18T06:17:48.707Z,5.00
2023-04-18T06:20:18.011Z,4.60
2023-04-18T06:22:45.938Z,5.23
2023-04-18T06:25:13.953Z,5.23
2023-04-18T06:27:41.922Z,4.93
2023-04-18T06:30:10.651Z,4.93
2023-04-18T06:32:39.356Z,4.77
2023-04-18T06:35:07.991Z,5.23
2023-04-18T06:37:37.313Z,4.60
2023-04-18T06:40:05.749Z,5.77
2023-04-18T06:42:33.759Z,4.80
2023-04-18T06:45:02.830Z,5.60
2023-04-18T06:47:31.275Z,4.90
2023-04-18T06:49:59.320Z,5.67
2023-04-18T06:52:27.309Z,4.70
2023-04-18T06:54:56.578Z,5.00
2023-04-18T06:57:24.666Z,5.20
2023-04-18T06:59:52.643Z,4.97
2023-04-18T07:02:20.727Z,5.47
2023-04-18T07:04:49.158Z,4.83
2023-04-18T07:07:17.249Z,6.10
2023-04-18T07:09:45.185Z,5.20
2023-04-18T07:12:14.493Z,5.20
2023-04-18T07:14:42.451Z,4.80
2023-04-18T07:17:10.439Z,5.40
2023-04-18T07:19:38.444Z,4.57
2023-04-18T07:22:06.407Z,5.10
2023-04-18T07:24:34.508Z,4.87
2023-04-18T07:27:03.572Z,5.60
2023-04-18T07:29:33.087Z,4.87
2023-04-18T07:32:01.051Z,5.57
2023-04-18T07:34:30.000Z,5.70
2023-04-18T07:36:58.298Z,4.67
2023-04-18T07:39:26.427Z,5.70
2023-04-18T07:41:54.377Z,5.10
2023-04-18T07:44:22.465Z,5.30
2023-04-18T07:46:52.587Z,5.47
2023-04-18T07:49:20.591Z,5.20
2023-04-18T07:51:48.615Z,5.87
2023-04-18T07:54:16.627Z,6.27
2023-04-18T07:56:44.618Z,5.60
2023-04-18T07:59:12.854Z,5.73
2023-04-18T08:01:40.959Z,5.13
2023-04-18T08:04:10.688Z,4.80
2023-04-18T08:06:38.816Z,5.17
2023-04-18T08:09:06.744Z,4.67
2023-04-18T08:11:35.155Z,5.00
2023-04-18T08:14:03.246Z,5.33
2023-04-18T08:16:31.381Z,5.37
2023-04-18T08:18:59.430Z,6.00
2023-04-18T08:21:28.748Z,5.23
2023-04-18T08:23:56.995Z,5.07
2023-04-18T08:26:24.960Z,5.57
2023-04-18T08:28:52.938Z,5.20
2023-04-18T08:31:20.982Z,5.80
2023-04-18T08:33:48.925Z,5.27
2023-04-18T08:36:17.258Z,4.83
2023-04-18T08:38:46.754Z,4.73
2023-04-18T08:41:16.464Z,5.60
2023-04-18T08:43:49.087Z,5.57
2023-04-18T08:46:17.273Z,5.03
2023-04-18T08:48:46.773Z,5.13
2023-04-18T08:51:14.770Z,5.57
2023-04-18T08:53:45.049Z,6.00
2023-04-18T08:56:16.288Z,5.43
2023-04-18T08:58:45.068Z,5.63
2023-04-18T09:01:13.535Z,5.60
2023-04-18T09:03:44.057Z,5.40
2023-04-18T09:06:16.034Z,4.83
2023-04-18T09:08:44.577Z,5.47
2023-04-18T09:11:28.901Z,5.70
2023-04-18T09:13:59.112Z,5.63
2023-04-18T09:16:28.406Z,5.57
2023-04-18T09:19:13.887Z,4.87
2023-04-18T09:21:44.457Z,5.57
2023-04-18T09:24:24.142Z,4.90
2023-04-18T09:26:55.806Z,5.60
2023-04-18T09:29:24.646Z,4.97
2023-04-18T09:32:03.191Z,5.87
2023-04-18T09:34:33.992Z,4.70
2023-04-18T09:37:10.456Z,5.30
2023-04-18T09:39:39.497Z,5.90
2023-04-18T09:42:10.500Z,5.03
2023-04-18T09:45:02.009Z,4.80
2023-04-18T09:47:30.069Z,5.30
2023-04-18T09:49:58.086Z,5.93
2023-04-18T09:52:26.819Z,5.10
2023-04-18T09:55:01.004Z,5.90
2023-04-18T09:57:32.035Z,6.23
2023-04-18T10:00:13.686Z,5.90
2023-04-18T10:02:50.228Z,5.50
2023-04-18T10:05:21.203Z,5.83
2023-04-18T10:07:51.085Z,5.30
2023-04-18T10:10:19.593Z,6.70
2023-04-18T10:12:50.774Z,5.37
2023-04-18T10:15:21.032Z,6.03
2023-04-18T10:18:03.664Z,5.30
2023-04-18T10:20:35.724Z,5.90
2023-04-18T10:23:37.794Z,6.63
2023-04-18T10:26:06.675Z,6.70
2023-04-18T10:28:54.257Z,5.60
2023-04-18T10:31:23.324Z,5.73
2023-04-18T10:34:04.120Z,5.13
2023-04-18T10:37:05.953Z,6.87
2023-04-18T10:39:49.100Z,6.77
2023-04-18T10:42:17.128Z,6.03
2023-04-18T10:44:45.058Z,6.67
2023-04-18T10:47:23.014Z,5.97
2023-04-18T10:49:58.841Z,5.97
2023-04-18T10:52:28.501Z,5.83
2023-04-18T10:55:05.950Z,6.17
2023-04-18T10:57:44.248Z,6.07
2023-04-18T11:00:15.300Z,6.73
2023-04-18T11:02:53.697Z,5.73
2023-04-18T11:05:24.367Z,5.57
2023-04-18T11:07:55.357Z,6.00
2023-04-18T11:10:25.466Z,6.20
2023-04-18T11:12:54.435Z,5.93
2023-04-18T11:15:24.207Z,6.80
2023-04-18T11:18:00.496Z,6.40
2023-04-18T11:20:29.475Z,5.57
2023-04-18T11:23:01.104Z,6.13
2023-04-18T11:25:30.703Z,5.60
2023-04-18T11:28:01.144Z,5.43
2023-04-18T11:30:31.287Z,7.17
2023-04-18T11:32:59.311Z,6.60
2023-04-18T11:35:27.805Z,6.40
2023-04-18T11:37:56.132Z,6.10
2023-04-18T11:40:25.856Z,6.37
2023-04-18T11:42:55.745Z,6.10
2023-04-18T11:45:23.728Z,5.83
2023-04-18T11:47:58.146Z,6.57
2023-04-18T11:50:27.002Z,5.43
2023-04-18T11:52:55.734Z,6.07
2023-04-18T11:55:27.264Z,6.33
2023-04-18T11:57:56.802Z,5.80
2023-04-18T12:00:33.778Z,5.50
2023-04-18T12:03:02.927Z,6.87
2023-04-18T12:05:32.746Z,5.60
2023-04-18T12:08:07.796Z,5.70
2023-04-18T12:10:37.252Z,6.23
2023-04-18T12:13:09.118Z,5.50
2023-04-18T12:15:40.308Z,6.67
2023-04-18T12:18:09.305Z,5.50
2023-04-18T12:20:38.805Z,5.43
2023-04-18T12:23:07.820Z,5.30
2023-04-18T12:25:37.529Z,5.60
2023-04-18T12:28:15.851Z,6.00
2023-04-18T12:30:43.776Z,6.00
2023-04-18T12:33:11.801Z,4.90
2023-04-18T12:35:39.713Z,5.33
2023-04-18T12:38:07.679Z,5.70
2023-04-18T12:40:39.693Z,5.30
2023-04-18T12:43:08.881Z,5.90
2023-04-18T12:45:36.875Z,5.33
2023-04-18T12:48:05.349Z,5.50
2023-04-18T12:50:33.651Z,5.40
2023-04-18T12:53:02.801Z,6.03
2023-04-18T12:55:30.775Z,5.50
2023-04-18T12:58:00.188Z,5.17
2023-04-18T13:00:30.375Z,5.77
2023-04-18T13:02:59.130Z,5.60
2023-04-18T13:05:31.592Z,5.53
2023-04-18T13:10:32.486Z,5.93
2023-04-18T13:13:01.740Z,5.63
2023-04-18T13:15:29.680Z,4.90
2023-04-18T13:17:57.648Z,5.10
2023-04-18T13:20:25.726Z,4.97
2023-04-18T13:22:53.641Z,5.37
2023-04-18T13:25:21.852Z,4.90
2023-04-18T13:27:50.316Z,5.50
2023-04-18T13:30:19.948Z,5.80
2023-04-18T13:32:48.053Z,5.33
2023-04-18T13:35:16.137Z,5.07
2023-04-18T13:37:44.422Z,4.87
2023-04-18T13:40:13.479Z,5.20
2023-04-18T13:42:41.451Z,4.97
2023-04-18T13:45:09.997Z,4.80
2023-04-18T13:47:39.468Z,5.40
2023-04-18T13:50:08.879Z,6.33
2023-04-18T13:52:36.901Z,5.20
2023-04-18T13:55:05.251Z,5.50
2023-04-18T13:57:33.645Z,4.93
2023-04-18T14:00:02.132Z,4.87
2023-04-18T14:02:30.255Z,5.10
2023-04-18T14:04:59.901Z,4.60
2023-04-18T14:07:28.021Z,4.90
2023-04-18T14:09:56.027Z,4.50
2023-04-18T14:12:24.486Z,4.63
2023-04-18T14:14:55.680Z,4.83
2023-04-18T14:17:23.657Z,4.47
2023-04-18T14:19:51.612Z,4.83
2023-04-18T14:22:21.125Z,4.80
2023-04-18T14:24:49.144Z,5.47
2023-04-18T14:27:17.097Z,4.70
2023-04-18T14:29:45.042Z,4.80
2023-04-18T14:32:13.074Z,4.83
2023-04-18T14:34:41.108Z,5.00
2023-04-18T14:37:09.582Z,4.50
2023-04-18T14:39:38.998Z,4.50
2023-04-18T14:42:07.093Z,4.60
2023-04-18T14:44:51.870Z,4.80
2023-04-18T14:47:19.947Z,4.70
2023-04-18T14:49:47.898Z,4.33
2023-04-18T14:52:15.848Z,3.87
2023-04-18T14:54:45.097Z,3.60
2023-04-18T14:57:13.100Z,4.60
2023-04-18T14:59:41.081Z,3.83
2023-04-18T15:02:09.179Z,3.80
2023-04-18T15:04:37.246Z,4.00
2023-04-18T15:07:05.388Z,4.77
2023-04-18T15:09:37.262Z,3.93
2023-04-18T15:12:08.011Z,4.60
2023-04-18T15:14:36.140Z,4.73
2023-04-18T15:17:04.558Z,4.03
2023-04-18T15:19:32.908Z,4.40
2023-04-18T15:22:00.914Z,4.10
2023-04-18T15:24:28.865Z,4.50
2023-04-18T15:26:57.074Z,4.40
2023-04-18T15:29:26.356Z,3.90
2023-04-18T15:31:54.403Z,3.43
2023-04-18T15:34:22.403Z,4.10
2023-04-18T15:36:50.493Z,3.83
2023-04-18T15:39:21.830Z,4.00
2023-04-18T15:41:53.243Z,4.50
2023-04-18T15:44:21.263Z,3.47
2023-04-18T15:46:51.001Z,3.70
2023-04-18T15:49:18.967Z,3.40
2023-04-18T15:51:46.938Z,3.90
2023-04-18T15:54:15.110Z,3.80
2023-04-18T15:56:44.705Z,3.20
2023-04-18T15:59:13.174Z,3.23
2023-04-18T16:01:42.041Z,3.90
2023-04-18T16:04:12.853Z,3.13
2023-04-18T16:06:41.288Z,3.90
2023-04-18T16:09:09.843Z,3.93
2023-04-18T16:11:37.761Z,3.33
2023-04-18T16:14:05.745Z,3.90
2023-04-18T16:16:34.372Z,3.10
2023-04-18T16:19:02.367Z,3.60
2023-04-18T16:21:32.504Z,3.80
2023-04-18T16:24:00.483Z,3.50
2023-04-18T16:26:28.929Z,3.60
2023-04-18T16:28:57.016Z,3.77
2023-04-18T16:31:25.051Z,3.47
2023-04-18T16:33:53.420Z,3.20
2023-04-18T16:36:21.401Z,3.50
2023-04-18T16:38:51.212Z,3.80
2023-04-18T16:41:19.186Z,3.37
2023-04-18T16:43:47.110Z,3.50
2023-04-18T16:46:15.076Z,3.20
2023-04-18T16:48:44.918Z,3.47
2023-04-18T16:51:13.134Z,3.37
2023-04-18T16:53:41.105Z,3.37
2023-04-18T16:56:10.478Z,3.53
2023-04-18T16:58:38.436Z,2.90
2023-04-18T17:01:08.090Z,3.43
2023-04-18T17:03:36.580Z,3.40
2023-04-18T17:06:05.829Z,3.63
2023-04-18T17:08:34.137Z,3.93
2023-04-18T17:11:02.409Z,3.67
2023-04-18T17:13:32.373Z,3.70
2023-04-18T17:16:00.414Z,3.83
2023-04-18T17:18:29.317Z,3.60
2023-04-18T17:20:57.442Z,3.37
2023-04-18T17:23:25.378Z,3.70
2023-04-18T17:25:53.316Z,3.70
2023-04-18T17:28:23.621Z,3.80
2023-04-18T17:30:52.998Z,3.63
2023-04-18T17:33:21.044Z,3.25
2023-04-18T17:35:48.999Z,3.13
2023-04-18T17:38:17.087Z,3.67
2023-04-18T17:40:45.092Z,3.83
2023-04-18T17:43:13.178Z,3.60
2023-04-18T17:45:41.430Z,4.03
2023-04-18T17:48:10.849Z,4.07
2023-04-18T17:50:38.780Z,3.60
2023-04-18T17:53:06.890Z,3.70
2023-04-18T17:55:34.885Z,4.10
2023-04-18T17:58:02.825Z,3.30
2023-04-18T18:00:31.775Z,3.60
2023-04-18T18:03:01.386Z,3.67
2023-04-18T18:05:31.210Z,3.70
2023-04-18T18:08:02.668Z,3.93
2023-04-18T18:10:37.697Z,3.87
2023-04-18T18:13:05.696Z,4.00
2023-04-18T18:15:34.254Z,4.10
2023-04-18T18:18:02.554Z,3.90
2023-04-18T18:20:32.037Z,3.33
2023-04-18T18:23:00.268Z,3.70
2023-04-18T18:25:28.674Z,4.00
2023-04-18T18:27:56.812Z,3.77
2023-04-18T18:30:24.803Z,3.33
2023-04-18T18:32:53.481Z,3.47
2023-04-18T18:35:21.988Z,4.30
2023-04-18T18:37:51.509Z,3.70
2023-04-18T18:40:19.624Z,3.50
2023-04-18T18:42:49.418Z,3.60
2023-04-18T18:45:17.424Z,3.67
2023-04-18T18:47:46.220Z,3.87
2023-04-18T18:50:14.720Z,3.70
2023-04-18T18:52:43.103Z,3.80
2023-04-18T18:55:12.687Z,3.90
2023-04-18T18:57:40.662Z,3.90
2023-04-18T19:00:12.156Z,3.70
2023-04-18T19:02:40.770Z,4.60
2023-04-18T19:05:09.575Z,3.93
2023-04-18T19:07:37.537Z,3.70
2023-04-18T19:10:06.398Z,3.83
2023-04-18T19:12:35.750Z,4.57
2023-04-18T19:15:03.792Z,3.83
2023-04-18T19:17:32.059Z,4.73
2023-04-18T19:20:01.433Z,4.13
2023-04-18T19:22:29.712Z,3.73
2023-04-18T19:24:58.478Z,3.87
2023-04-18T19:27:27.028Z,3.50
2023-04-18T19:29:56.446Z,4.30
2023-04-18T19:32:24.501Z,4.37
2023-04-18T19:34:52.520Z,4.17
2023-04-18T19:37:20.496Z,3.97
2023-04-18T19:39:48.450Z,4.70
2023-04-18T19:42:16.501Z,3.93
2023-04-18T19:45:01.235Z,4.07
2023-04-18T19:47:33.875Z,3.60
2023-04-18T19:50:02.176Z,4.60
2023-04-18T19:52:30.292Z,4.10
2023-04-18T19:54:58.261Z,4.83
2023-04-18T19:57:27.718Z,4.40
2023-04-18T19:59:55.749Z,4.40
2023-04-18T20:02:25.290Z,4.30
2023-04-18T20:04:53.490Z,4.27
2023-04-18T20:07:21.741Z,4.37
2023-04-18T20:09:50.644Z,4.37
2023-04-18T20:12:18.618Z,4.77
2023-04-18T20:14:47.691Z,4.70
2023-04-18T20:17:15.915Z,4.40
2023-04-18T20:19:47.100Z,4.13
2023-04-18T20:22:15.390Z,3.63
2023-04-18T20:24:45.022Z,4.33
2023-04-18T20:27:13.276Z,4.77
2023-04-18T20:29:41.331Z,3.97
2023-04-18T20:32:09.275Z,4.50
2023-04-18T20:34:37.670Z,4.37
2023-04-18T20:37:09.249Z,4.60
2023-04-18T20:39:38.106Z,5.20
2023-04-18T20:42:06.384Z,4.00
2023-04-18T20:44:35.079Z,4.87
2023-04-18T20:47:03.339Z,3.87
2023-04-18T20:49:31.335Z,2.93
2023-04-18T20:51:59.306Z,4.37
2023-04-18T20:54:28.591Z,5.10
2023-04-18T20:56:56.525Z,5.03
2023-04-18T20:59:24.475Z,4.10
2023-04-18T21:01:52.552Z,4.47
2023-04-18T21:04:22.274Z,4.70
2023-04-18T21:06:50.638Z,4.87
2023-04-18T21:09:18.600Z,4.53
2023-04-18T21:11:47.954Z,4.70
2023-04-18T21:14:17.176Z,5.50
2023-04-18T21:16:45.350Z,4.77
2023-04-18T21:19:13.365Z,5.00
2023-04-18T21:21:41.378Z,4.17
2023-04-18T21:24:10.770Z,4.87
2023-04-18T21:26:38.753Z,4.87
2023-04-18T21:29:08.028Z,4.97
2023-04-18T21:31:36.484Z,4.43
2023-04-18T21:34:06.197Z,4.90
2023-04-18T21:36:34.217Z,4.57
2023-04-18T21:39:04.000Z,4.87
2023-04-18T21:41:32.477Z,4.47
2023-04-18T21:44:00.460Z,5.57
2023-04-18T21:46:29.820Z,5.00
2023-04-18T21:48:57.784Z,4.77
2023-04-18T21:51:27.206Z,4.67
2023-04-18T21:53:55.413Z,5.00
2023-04-18T21:56:23.428Z,4.90
2023-04-18T21:58:51.436Z,5.13
2023-04-18T22:01:19.452Z,5.07
2023-04-18T22:03:48.914Z,4.97
2023-04-18T22:06:17.067Z,4.90
2023-04-18T22:08:45.057Z,5.20
2023-04-18T22:11:13.620Z,5.17
2023-04-18T22:13:44.969Z,4.80
2023-04-18T22:16:13.321Z,4.30
2023-04-18T22:18:41.325Z,4.50
2023-04-18T22:21:10.863Z,4.67
2023-04-18T22:23:38.916Z,4.60
2023-04-18T22:26:07.054Z,5.07
2023-04-18T22:28:35.029Z,4.77
2023-04-18T22:31:03.061Z,4.77
2023-04-18T22:33:31.104Z,4.87
2023-04-18T22:35:59.134Z,5.70
2023-04-18T22:38:28.457Z,4.80
2023-04-18T22:40:56.470Z,5.27
2023-04-18T22:43:24.912Z,5.10
2023-04-18T22:45:57.636Z,4.80
2023-04-18T22:48:25.584Z,5.03
2023-04-18T22:50:53.560Z,4.90
2023-04-18T22:53:21.584Z,5.50
2023-04-18T22:55:50.966Z,4.57
2023-04-18T22:58:18.981Z,4.30
2023-04-18T23:00:46.950Z,5.57
2023-04-18T23:03:14.971Z,5.13
2023-04-18T23:05:45.351Z,5.10
2023-04-18T23:08:14.013Z,5.40
2023-04-18T23:10:42.004Z,4.77
2023-04-18T23:13:11.358Z,4.80
2023-04-18T23:15:39.379Z,5.53
2023-04-18T23:18:07.415Z,5.17
2023-04-18T23:20:36.337Z,4.90
2023-04-18T23:23:04.321Z,5.07
2023-04-18T23:25:34.160Z,4.97
2023-04-18T23:28:04.686Z,5.33
2023-04-18T23:30:37.768Z,4.50
2023-04-18T23:33:06.530Z,5.40
2023-04-18T23:35:34.584Z,5.63
2023-04-18T23:38:02.540Z,5.37
2023-04-18T23:40:30.531Z,4.80
2023-04-18T23:42:58.878Z,5.10
2023-04-18T23:45:28.016Z,4.87
2023-04-18T23:47:57.352Z,5.10
2023-04-18T23:50:25.334Z,5.40
2023-04-18T23:52:53.230Z,5.10
2023-04-18T23:55:21.334Z,5.60
2023-04-18T23:57:52.335Z,5.50
